Montrose Regional Airport Montrose US
ICAO: KMTJ
IATA: MTJ
Category: Medium
Scheduled Services: No

Elevation: 5759 ft
TransAlt. 18000 ft.

Airport Communications:
ASOS:135.225
DENVER CNTR:125.35
DENVER RDO:122.65
CTAF/UNICOM:122.8

KMTJ Zoom In..

Runways:

(A) RW 13 length 7510 ft width 100 ft
---- / hdg 127

(B) RW 17 length 10000 ft width 150 ft
ILS 111.30 / hdg 168

(C) RW 31 length 7510 ft width 100 ft
---- / hdg 307

(D) RW 35 length 10000 ft width 150 ft
---- / hdg 348

Location; KMTJ
Day. 23 / Time. 06.53 Zulu
* Altimeter: 30.27
* Temperature: 21° c. 69.8°f.
* Wind from: 180° Speed 03 kn.
Dewpoint: 07° c.
Visibility: 10 Statute Miles.
Clouds: Few 12000 ft.

KMTJ 230653Z AUTO 18003KT 10SM FEW120 21/07 A3027 RMK AO2 SLP151 T02110067 403500194


Wind From 180°
Speed 03 kn.

 
 
jpsmedia.com for Web Design worldairports.se 2018   terms of use